Terminal Aerodrome Forecast
Issued by NWS

Home | Current Version | Previous Version | Text Only | Print | Product List | Glossary On
Versions: 1 2 3 4 5 6 7 8 9 10 11 12 13 14 15 16
626
FTUS46 KPDT 260520
TAFRDM
TAF
KRDM 260520Z 2606/2706 16005KT P6SM FEW060 BKN120
     FM261700 18010KT P6SM -SHRA SCT025 OVC040
     FM262200 19010KT P6SM VCSH SCT040 BKN060
     FM270300 21007KT P6SM -RA OVC050=

USA.gov is the U.S. government's official web portal to all federal, state and local government web resources and services.